Time;durP1;ratioP1;P1;durP2;ratioP2;P2;SDS_P1;SDS_P2;PMS_P1;PMS_P2;Temp;Humidity;BMP_temperature;BMP_pressure;BME280_temperature;BME280_humidity;BME280_pressure;Samples;Min_cycle;Max_cycle;Signal;HPM_P1;HPM_P2
2022/11/30 00:00:39;;;;;;;18.77;9.97;;;6.50;99.90;;;;;;4119179;28;20456;-75
2022/11/30 00:02:41;;;;;;;18.90;10.80;;;6.50;99.90;;;;;;4108567;28;20868;-75
2022/11/30 00:04:43;;;;;;;20.50;11.27;;;6.40;99.90;;;;;;4098491;28;20452;-75
2022/11/30 00:06:45;;;;;;;20.40;10.87;;;6.40;99.90;;;;;;4121246;28;20469;-75
2022/11/30 00:08:47;;;;;;;18.60;10.50;;;6.40;99.90;;;;;;4122020;28;20490;-75
2022/11/30 00:10:49;;;;;;;20.83;11.03;;;6.40;99.90;;;;;;4117735;28;20462;-75
2022/11/30 00:12:50;;;;;;;17.90;10.77;;;6.40;99.90;;;;;;4100797;28;20948;-75
2022/11/30 00:14:54;;;;;;;22.97;11.13;;;6.40;99.90;;;;;;4117152;28;20497;-75
2022/11/30 00:16:56;;;;;;;22.73;11.10;;;6.60;99.90;;;;;;4120560;28;20967;-75
2022/11/30 00:18:57;;;;;;;19.03;10.90;;;6.40;99.90;;;;;;4101626;28;20515;-75
2022/11/30 00:21:00;;;;;;;17.53;9.80;;;6.40;99.90;;;;;;4097034;28;20468;-75
2022/11/30 00:23:02;;;;;;;19.17;10.77;;;6.40;99.90;;;;;;4119433;28;21146;-75
2022/11/30 00:25:05;;;;;;;19.10;9.97;;;6.40;99.90;;;;;;4120075;28;20502;-75
2022/11/30 00:27:07;;;;;;;18.40;10.47;;;6.40;99.90;;;;;;4120070;28;20493;-75
2022/11/30 00:29:09;;;;;;;21.80;11.30;;;6.40;99.90;;;;;;4121367;28;20493;-75
2022/11/30 00:31:14;;;;;;;18.57;10.33;;;6.40;99.90;;;;;;4119868;28;20449;-75
2022/11/30 00:33:15;;;;;;;17.80;9.93;;;6.40;99.90;;;;;;4104176;28;20488;-75
2022/11/30 00:35:18;;;;;;;18.47;10.07;;;6.40;99.90;;;;;;4103509;28;20568;-75
2022/11/30 00:37:20;;;;;;;16.93;9.53;;;6.40;99.90;;;;;;4122710;28;20471;-75
2022/11/30 00:39:22;;;;;;;19.10;10.20;;;6.40;99.90;;;;;;4100796;28;20566;-75
2022/11/30 00:41:24;;;;;;;19.60;10.37;;;6.40;99.90;;;;;;4118009;28;20907;-75
2022/11/30 00:43:26;;;;;;;20.03;10.10;;;6.40;99.90;;;;;;4120519;28;20524;-75
2022/11/30 00:45:28;;;;;;;19.87;10.63;;;6.40;99.90;;;;;;4121316;28;20494;-75
2022/11/30 00:47:31;;;;;;;19.37;9.57;;;6.30;99.90;;;;;;4119131;28;20545;-75
2022/11/30 00:49:33;;;;;;;19.73;10.77;;;6.40;99.90;;;;;;4113496;28;20512;-75
2022/11/30 00:51:35;;;;;;;19.03;9.77;;;6.40;99.90;;;;;;4123441;28;20468;-75
2022/11/30 00:53:38;;;;;;;17.63;9.70;;;6.40;99.90;;;;;;4119256;28;20557;-75
2022/11/30 00:55:40;;;;;;;17.60;10.03;;;6.30;99.90;;;;;;4119113;28;20541;-75
2022/11/30 00:57:41;;;;;;;17.93;9.70;;;6.30;99.90;;;;;;4120255;28;20516;-74
2022/11/30 00:59:43;;;;;;;19.60;9.73;;;6.30;99.90;;;;;;4119332;28;20451;-75
2022/11/30 01:01:45;;;;;;;18.97;10.10;;;6.30;99.90;;;;;;4120646;28;20468;-75
2022/11/30 01:03:49;;;;;;;22.23;11.47;;;6.30;99.90;;;;;;4119120;28;20478;-75
2022/11/30 01:05:50;;;;;;;18.90;10.03;;;6.30;99.90;;;;;;4117701;28;20472;-75
2022/11/30 01:07:52;;;;;;;19.97;10.13;;;6.30;99.90;;;;;;4120533;28;20517;-75
2022/11/30 01:09:54;;;;;;;18.30;9.53;;;6.30;99.90;;;;;;4115727;28;20468;-75
2022/11/30 01:11:56;;;;;;;19.77;10.23;;;6.30;99.90;;;;;;4122649;28;20471;-75
2022/11/30 01:13:59;;;;;;;18.87;9.57;;;6.30;99.90;;;;;;4122500;28;20665;-74
2022/11/30 01:16:01;;;;;;;20.53;10.20;;;6.30;99.90;;;;;;4121450;28;20483;-75
2022/11/30 01:18:03;;;;;;;19.83;10.40;;;6.30;99.90;;;;;;4120891;28;20484;-75
2022/11/30 01:20:10;;;;;;;19.40;9.50;;;6.30;99.90;;;;;;4121788;28;20472;-75
2022/11/30 01:22:12;;;;;;;20.83;10.70;;;6.30;99.90;;;;;;4121952;28;20455;-75
2022/11/30 01:24:14;;;;;;;18.70;10.20;;;6.30;99.90;;;;;;4123731;28;20506;-74
2022/11/30 01:26:17;;;;;;;20.30;10.60;;;6.30;99.90;;;;;;4123206;28;20460;-75
2022/11/30 01:28:18;;;;;;;20.00;10.27;;;6.20;99.90;;;;;;4121270;28;20579;-75
2022/11/30 01:30:20;;;;;;;21.00;10.77;;;6.20;99.90;;;;;;4121078;28;20459;-75
2022/11/30 01:32:22;;;;;;;20.30;10.17;;;6.20;99.90;;;;;;4123635;28;20226;-75
2022/11/30 01:34:24;;;;;;;22.13;11.50;;;6.20;99.90;;;;;;4123476;28;20524;-75
2022/11/30 01:36:27;;;;;;;20.97;11.07;;;6.20;99.90;;;;;;4120993;28;20513;-75
2022/11/30 01:38:32;;;;;;;21.40;10.67;;;6.20;99.90;;;;;;4125942;28;20472;-75
2022/11/30 01:40:34;;;;;;;20.67;10.80;;;6.20;99.90;;;;;;4123420;28;20851;-75
2022/11/30 01:42:36;;;;;;;21.90;11.07;;;6.20;99.90;;;;;;4120186;28;20549;-75
2022/11/30 01:44:51;;;;;;;20.63;10.40;;;6.20;99.90;;;;;;4120859;28;20987;-75
2022/11/30 01:46:57;;;;;;;21.40;11.53;;;6.20;99.90;;;;;;4124213;28;20470;-75
2022/11/30 01:49:16;;;;;;;22.03;11.17;;;6.10;99.90;;;;;;4124485;28;20501;-75
2022/11/30 01:51:19;;;;;;;20.63;10.57;;;6.10;99.90;;;;;;4123150;28;20472;-75
2022/11/30 01:53:23;;;;;;;20.70;10.97;;;6.10;99.90;;;;;;4121595;28;20494;-75
2022/11/30 01:55:29;;;;;;;22.93;11.60;;;6.10;99.90;;;;;;4125282;28;20446;-75
2022/11/30 01:57:35;;;;;;;21.50;10.90;;;6.10;99.90;;;;;;4122030;28;20474;-74
2022/11/30 01:59:38;;;;;;;22.60;12.13;;;6.10;99.90;;;;;;4122363;28;20502;-75
2022/11/30 02:01:40;;;;;;;23.93;11.83;;;6.10;99.90;;;;;;4122810;28;20486;-73
2022/11/30 02:03:48;;;;;;;26.07;11.83;;;6.00;99.90;;;;;;4123987;28;20637;-75
2022/11/30 02:05:50;;;;;;;20.70;10.83;;;6.00;99.90;;;;;;4118703;28;20504;-75
2022/11/30 02:07:52;;;;;;;21.57;11.00;;;6.10;99.90;;;;;;4126010;28;20562;-75
2022/11/30 02:09:55;;;;;;;22.20;11.17;;;6.00;99.90;;;;;;4122285;28;20491;-75
2022/11/30 02:11:58;;;;;;;23.57;11.27;;;6.00;99.90;;;;;;4122570;28;20974;-75
2022/11/30 02:14:11;;;;;;;21.30;10.90;;;6.00;99.90;;;;;;4122346;28;20493;-74
2022/11/30 02:16:21;;;;;;;22.73;11.60;;;6.00;99.90;;;;;;4122888;28;21193;-75
2022/11/30 02:18:32;;;;;;;22.03;11.07;;;6.00;99.90;;;;;;4118760;28;20466;-74
2022/11/30 02:20:55;;;;;;;23.23;11.33;;;6.00;99.90;;;;;;4124602;28;20972;-75
2022/11/30 02:23:23;;;;;;;22.30;11.77;;;6.00;99.90;;;;;;4128432;28;20497;-74
2022/11/30 02:25:36;;;;;;;25.43;11.23;;;6.00;99.90;;;;;;4123291;28;20483;-74
2022/11/30 02:27:56;;;;;;;23.83;11.13;;;6.00;99.90;;;;;;4125759;28;20552;-74
2022/11/30 02:30:05;;;;;;;21.53;10.33;;;5.90;99.90;;;;;;4123794;28;20487;-75
2022/11/30 02:32:12;;;;;;;22.13;11.03;;;5.90;99.90;;;;;;4123662;28;20471;-74
2022/11/30 02:34:17;;;;;;;22.80;10.90;;;5.90;99.90;;;;;;4122030;28;20565;-74
2022/11/30 02:36:21;;;;;;;25.80;11.93;;;5.90;99.90;;;;;;4120079;28;20467;-74
2022/11/30 02:38:25;;;;;;;24.10;11.83;;;5.90;99.90;;;;;;4122950;28;21227;-74
2022/11/30 02:40:27;;;;;;;25.30;11.60;;;5.90;99.90;;;;;;4121495;28;20502;-75
2022/11/30 02:42:29;;;;;;;22.43;11.77;;;5.90;99.90;;;;;;4119362;28;20483;-75
2022/11/30 02:44:31;;;;;;;21.60;11.17;;;5.90;99.90;;;;;;4122263;28;20576;-75
2022/11/30 02:46:46;;;;;;;21.00;11.07;;;5.90;99.90;;;;;;4118501;28;20475;-75
2022/11/30 02:48:56;;;;;;;20.63;10.47;;;5.90;99.90;;;;;;4116818;28;21060;-75
2022/11/30 02:51:00;;;;;;;22.00;11.27;;;5.90;99.90;;;;;;4103551;28;20496;-74
2022/11/30 02:53:03;;;;;;;23.03;11.77;;;5.80;99.90;;;;;;4123869;28;20505;-75
2022/11/30 02:55:07;;;;;;;23.13;10.67;;;5.80;99.90;;;;;;4121505;28;20454;-74
2022/11/30 02:57:09;;;;;;;23.47;11.80;;;5.80;99.90;;;;;;4119953;28;20546;-75
2022/11/30 02:59:11;;;;;;;22.23;11.00;;;5.80;99.90;;;;;;4121427;28;20455;-75
2022/11/30 03:01:13;;;;;;;22.97;11.67;;;5.80;99.90;;;;;;4123907;28;20469;-75
2022/11/30 03:03:16;;;;;;;23.50;11.40;;;5.90;99.90;;;;;;4119213;28;20524;-75
2022/11/30 03:05:18;;;;;;;22.37;10.60;;;5.80;99.90;;;;;;4108116;28;20519;-74
2022/11/30 03:07:20;;;;;;;25.43;11.77;;;5.80;99.90;;;;;;4120913;28;20512;-74
2022/11/30 03:09:22;;;;;;;23.30;11.20;;;5.80;99.90;;;;;;4123595;28;20486;-75
2022/11/30 03:11:24;;;;;;;20.90;11.00;;;5.80;99.90;;;;;;4125185;28;20463;-75
2022/11/30 03:13:26;;;;;;;22.87;10.73;;;5.80;99.90;;;;;;4122228;28;21088;-74
2022/11/30 03:15:28;;;;;;;22.73;10.77;;;5.80;99.90;;;;;;4119952;28;20545;-74
2022/11/30 03:17:30;;;;;;;23.83;11.83;;;5.80;99.90;;;;;;4122293;28;21026;-75
2022/11/30 03:19:33;;;;;;;23.00;11.30;;;5.70;99.90;;;;;;4121805;28;20500;-74
2022/11/30 03:21:35;;;;;;;22.03;10.87;;;5.80;99.90;;;;;;4105252;28;20460;-75
2022/11/30 03:23:38;;;;;;;23.90;12.13;;;5.80;99.90;;;;;;4119293;28;20845;-75
2022/11/30 03:25:40;;;;;;;22.60;11.40;;;5.70;99.90;;;;;;4120604;28;20453;-75
2022/11/30 03:27:42;;;;;;;22.80;11.03;;;5.80;99.90;;;;;;4116811;28;20457;-75
2022/11/30 03:29:43;;;;;;;21.77;10.77;;;5.80;99.90;;;;;;4106293;28;20565;-74
2022/11/30 03:31:48;;;;;;;23.83;12.33;;;5.80;99.90;;;;;;4121755;28;20527;-75
2022/11/30 03:33:50;;;;;;;23.37;11.67;;;5.70;99.90;;;;;;4118314;28;20881;-75
2022/11/30 03:36:01;;;;;;;27.73;12.60;;;5.70;99.90;;;;;;4122580;28;20509;-74
2022/11/30 03:38:03;;;;;;;28.13;12.77;;;5.70;99.90;;;;;;4121745;28;20484;-74
2022/11/30 03:40:06;;;;;;;23.53;12.10;;;5.70;99.90;;;;;;4124393;28;20525;-74
2022/11/30 03:42:08;;;;;;;26.87;12.30;;;5.70;99.90;;;;;;4112485;28;20489;-74
2022/11/30 03:44:09;;;;;;;22.67;10.73;;;5.70;99.90;;;;;;4120569;28;20555;-75
2022/11/30 03:46:11;;;;;;;22.80;11.23;;;5.70;99.90;;;;;;4108472;28;21240;-74
2022/11/30 03:48:13;;;;;;;27.00;12.60;;;5.70;99.90;;;;;;4119771;28;20450;-74
2022/11/30 03:50:15;;;;;;;23.53;11.63;;;5.70;99.90;;;;;;4120329;28;20584;-74
2022/11/30 03:52:19;;;;;;;25.60;12.00;;;5.70;99.90;;;;;;4124444;28;20494;-75
2022/11/30 03:54:21;;;;;;;23.07;11.80;;;5.70;99.90;;;;;;4122840;28;20482;-75
2022/11/30 03:56:23;;;;;;;23.53;11.07;;;5.70;99.90;;;;;;4114151;28;20979;-75
2022/11/30 03:58:25;;;;;;;27.03;12.23;;;5.70;99.90;;;;;;4118704;28;20549;-74
2022/11/30 04:00:27;;;;;;;25.60;12.17;;;5.70;99.90;;;;;;4122858;28;21296;-74
2022/11/30 04:02:29;;;;;;;27.30;12.93;;;5.60;99.90;;;;;;4119699;28;20463;-74
2022/11/30 04:04:31;;;;;;;27.57;12.57;;;5.70;99.90;;;;;;4122678;28;20507;-74
2022/11/30 04:06:34;;;;;;;23.80;11.40;;;5.60;99.90;;;;;;4123425;28;21241;-74
2022/11/30 04:08:37;;;;;;;25.63;12.13;;;5.70;99.90;;;;;;4114345;28;21022;-74
2022/11/30 04:10:39;;;;;;;26.50;12.50;;;5.60;99.90;;;;;;4103571;28;20479;-74
2022/11/30 04:12:41;;;;;;;24.43;12.10;;;5.60;99.90;;;;;;4101413;28;20479;-73
2022/11/30 04:14:43;;;;;;;28.90;12.23;;;5.60;99.90;;;;;;4119486;28;20947;-74
2022/11/30 04:16:45;;;;;;;27.87;12.37;;;5.60;99.90;;;;;;4105152;28;20506;-74
2022/11/30 04:18:47;;;;;;;22.53;10.97;;;5.60;99.90;;;;;;4119614;28;20973;-74
2022/11/30 04:20:51;;;;;;;27.57;12.47;;;5.60;99.90;;;;;;4120314;28;20552;-74
2022/11/30 04:22:53;;;;;;;24.33;10.87;;;5.60;99.90;;;;;;4120248;28;20450;-74
2022/11/30 04:24:56;;;;;;;25.30;12.07;;;5.60;99.90;;;;;;4123569;28;20968;-74
2022/11/30 04:26:58;;;;;;;25.93;12.30;;;5.60;99.90;;;;;;4122819;28;20462;-75
2022/11/30 04:29:00;;;;;;;23.93;12.90;;;5.60;99.90;;;;;;4114631;28;20880;-74
2022/11/30 04:31:03;;;;;;;27.43;13.07;;;5.60;99.90;;;;;;4124801;28;20522;-75
2022/11/30 04:33:05;;;;;;;24.87;11.93;;;5.50;99.90;;;;;;4104506;28;20598;-74
2022/11/30 04:35:08;;;;;;;24.93;12.10;;;5.50;99.90;;;;;;4118474;28;21490;-74
2022/11/30 04:37:10;;;;;;;23.53;11.53;;;5.50;99.90;;;;;;4119949;28;20858;-75
2022/11/30 04:39:12;;;;;;;24.37;11.83;;;5.50;99.90;;;;;;4107902;28;20471;-74
2022/11/30 04:41:16;;;;;;;28.10;12.30;;;5.50;99.90;;;;;;4120088;28;20964;-75
2022/11/30 04:43:18;;;;;;;20.83;10.80;;;5.50;99.90;;;;;;4116767;28;20569;-75
2022/11/30 04:45:20;;;;;;;21.63;11.13;;;5.50;99.90;;;;;;4102910;28;20531;-74
2022/11/30 04:47:22;;;;;;;26.03;12.30;;;5.50;99.90;;;;;;4122114;28;20458;-74
2022/11/30 04:49:23;;;;;;;23.40;11.37;;;5.50;99.90;;;;;;4115688;28;20500;-74
2022/11/30 04:51:25;;;;;;;21.90;11.80;;;5.50;99.90;;;;;;4120932;28;20497;-74
2022/11/30 04:53:27;;;;;;;26.60;12.00;;;5.50;99.90;;;;;;4104362;28;20487;-74
2022/11/30 04:55:30;;;;;;;22.40;10.87;;;5.50;99.90;;;;;;4103626;28;20497;-74
2022/11/30 04:57:33;;;;;;;23.17;11.47;;;5.50;99.90;;;;;;4111736;28;20452;-74
2022/11/30 04:59:35;;;;;;;23.23;12.03;;;5.50;99.90;;;;;;4103177;28;20469;-74
2022/11/30 05:01:37;;;;;;;22.50;11.03;;;5.50;99.90;;;;;;4119124;28;21223;-74
2022/11/30 05:03:39;;;;;;;22.73;11.07;;;5.50;99.90;;;;;;4119912;28;20904;-74
2022/11/30 05:05:41;;;;;;;24.63;11.53;;;5.50;99.90;;;;;;4101989;28;20936;-74
2022/11/30 05:07:43;;;;;;;22.03;11.07;;;5.50;99.90;;;;;;4121358;28;20969;-74
2022/11/30 05:09:48;;;;;;;21.17;10.53;;;5.50;99.90;;;;;;4122389;28;20895;-74
2022/11/30 05:11:50;;;;;;;22.10;11.27;;;5.50;99.90;;;;;;4119328;28;21015;-74
2022/11/30 05:13:53;;;;;;;23.47;10.60;;;5.50;99.90;;;;;;4102067;28;20508;-74
2022/11/30 05:15:55;;;;;;;20.57;10.93;;;5.50;99.90;;;;;;4118304;28;20456;-74
2022/11/30 05:17:58;;;;;;;21.30;10.37;;;5.40;99.90;;;;;;4121169;28;20813;-74
2022/11/30 05:20:00;;;;;;;20.80;10.27;;;5.50;99.90;;;;;;4117888;28;20883;-74
2022/11/30 05:22:02;;;;;;;21.07;10.83;;;5.60;99.90;;;;;;4121976;28;20481;-74
2022/11/30 05:24:05;;;;;;;22.23;10.83;;;5.50;99.90;;;;;;4120916;28;20964;-74
2022/11/30 05:26:07;;;;;;;23.40;10.93;;;5.50;99.90;;;;;;4104510;28;20453;-75
2022/11/30 05:28:12;;;;;;;21.73;11.27;;;5.50;99.90;;;;;;4120020;28;20459;-75
2022/11/30 05:30:16;;;;;;;20.23;10.97;;;5.50;99.90;;;;;;4109766;28;20473;-75
2022/11/30 05:32:17;;;;;;;23.00;11.30;;;5.50;99.90;;;;;;4120125;28;20518;-75
2022/11/30 05:34:19;;;;;;;25.20;12.00;;;5.50;99.90;;;;;;4101774;28;20489;-74
2022/11/30 05:36:21;;;;;;;24.17;11.43;;;5.50;99.90;;;;;;4120012;28;20464;-74
2022/11/30 05:38:23;;;;;;;24.27;11.70;;;5.50;99.90;;;;;;4109170;28;20461;-75
2022/11/30 05:40:27;;;;;;;27.70;12.63;;;5.50;99.90;;;;;;4119344;28;20456;-74
2022/11/30 05:42:28;;;;;;;26.27;12.53;;;5.50;99.90;;;;;;4121309;28;20538;-74
2022/11/30 05:44:30;;;;;;;26.50;12.03;;;5.50;99.90;;;;;;4119962;28;20516;-74
2022/11/30 05:46:34;;;;;;;24.90;12.37;;;5.50;99.90;;;;;;4101424;28;20458;-74
2022/11/30 05:48:36;;;;;;;26.37;13.23;;;5.50;99.90;;;;;;4121588;28;20561;-74
2022/11/30 05:50:38;;;;;;;29.53;12.93;;;5.40;99.90;;;;;;4121878;28;20549;-75
2022/11/30 05:52:39;;;;;;;25.30;12.77;;;5.40;99.90;;;;;;4117081;28;20546;-74
2022/11/30 05:54:41;;;;;;;28.00;12.50;;;5.50;99.90;;;;;;4117532;28;20459;-74
2022/11/30 05:56:43;;;;;;;25.77;12.63;;;5.40;99.90;;;;;;4118761;28;20625;-74
2022/11/30 05:58:46;;;;;;;31.03;13.83;;;5.40;99.90;;;;;;4120652;28;20462;-75
2022/11/30 06:00:48;;;;;;;30.13;13.60;;;5.40;99.90;;;;;;4119048;28;20494;-74
2022/11/30 06:02:56;;;;;;;32.13;14.37;;;5.40;99.90;;;;;;4118576;28;20470;-74
2022/11/30 06:04:58;;;;;;;29.90;13.43;;;5.40;99.90;;;;;;4117901;28;20476;-74
2022/11/30 06:06:59;;;;;;;29.27;14.43;;;5.40;99.90;;;;;;4107270;28;20519;-75
2022/11/30 06:09:01;;;;;;;27.57;13.30;;;5.50;99.90;;;;;;4122162;28;20462;-74
2022/11/30 06:11:03;;;;;;;28.07;12.93;;;5.40;99.90;;;;;;4121485;28;20488;-74
2022/11/30 06:13:09;;;;;;;29.67;13.50;;;5.50;99.90;;;;;;4121989;28;20851;-74
2022/11/30 06:15:11;;;;;;;28.77;13.53;;;5.30;99.90;;;;;;4123357;28;20457;-75
2022/11/30 06:17:13;;;;;;;29.87;13.33;;;5.40;99.90;;;;;;4124147;28;20573;-73
2022/11/30 06:19:17;;;;;;;32.83;14.20;;;5.30;99.90;;;;;;4121208;28;20465;-74
2022/11/30 06:21:19;;;;;;;28.90;13.53;;;5.40;99.90;;;;;;4127802;28;20476;-74
2022/11/30 06:23:21;;;;;;;30.53;14.23;;;5.30;99.90;;;;;;4119837;28;20535;-74
2022/11/30 06:25:23;;;;;;;31.00;14.13;;;5.30;99.90;;;;;;4122432;28;20449;-74
2022/11/30 06:27:25;;;;;;;27.10;13.13;;;5.30;99.90;;;;;;4121682;28;20601;-74
2022/11/30 06:29:26;;;;;;;28.93;13.27;;;5.30;99.90;;;;;;4122982;28;20449;-74
2022/11/30 06:31:30;;;;;;;30.73;13.57;;;5.30;99.90;;;;;;4123986;28;20520;-75
2022/11/30 06:33:32;;;;;;;30.13;13.70;;;5.40;99.90;;;;;;4111742;28;21081;-74
2022/11/30 06:35:36;;;;;;;30.37;13.30;;;5.30;99.90;;;;;;4123129;28;20469;-75
2022/11/30 06:37:38;;;;;;;31.07;13.53;;;5.30;99.90;;;;;;4126381;28;20559;-79
2022/11/30 06:39:39;;;;;;;28.27;13.03;;;5.30;99.90;;;;;;4123525;28;20582;-76
2022/11/30 06:41:41;;;;;;;32.43;14.17;;;5.30;99.90;;;;;;4104530;28;20470;-74
2022/11/30 06:43:44;;;;;;;28.77;13.47;;;5.40;99.90;;;;;;4121346;28;20937;-75
2022/11/30 06:45:47;;;;;;;31.33;14.00;;;5.40;99.90;;;;;;4119988;28;20464;-74
2022/11/30 06:47:49;;;;;;;32.37;14.73;;;5.40;99.90;;;;;;4107794;28;20453;-75
2022/11/30 06:49:51;;;;;;;30.50;14.20;;;5.40;99.90;;;;;;4122948;28;20456;-74
2022/11/30 06:51:54;;;;;;;29.87;14.00;;;5.40;99.90;;;;;;4115306;28;20477;-75
2022/11/30 06:53:56;;;;;;;28.80;14.27;;;5.40;99.90;;;;;;4108870;28;20863;-73
2022/11/30 06:55:58;;;;;;;34.93;15.00;;;5.40;99.90;;;;;;4123090;28;20449;-73
2022/11/30 06:58:05;;;;;;;34.17;14.60;;;5.30;99.90;;;;;;4124872;28;20464;-74
2022/11/30 07:00:08;;;;;;;27.43;13.47;;;5.40;99.90;;;;;;4123457;28;20539;-75
2022/11/30 07:02:12;;;;;;;33.17;14.50;;;5.30;99.90;;;;;;4104656;28;20517;-74
2022/11/30 07:04:14;;;;;;;33.63;15.70;;;5.40;99.90;;;;;;4126679;28;20468;-75
2022/11/30 07:06:16;;;;;;;34.07;16.17;;;5.30;99.90;;;;;;4125349;28;20542;-74
2022/11/30 07:08:19;;;;;;;32.90;14.67;;;5.30;99.90;;;;;;4118856;28;20449;-74
2022/11/30 07:10:22;;;;;;;34.00;15.90;;;5.40;99.90;;;;;;4123446;28;20489;-73
2022/11/30 07:12:24;;;;;;;41.33;15.50;;;5.40;99.90;;;;;;4122780;28;20449;-74
2022/11/30 07:14:26;;;;;;;35.77;16.17;;;5.40;99.90;;;;;;4123301;28;20531;-74
2022/11/30 07:16:28;;;;;;;34.77;16.53;;;5.40;99.90;;;;;;4125833;28;20460;-73
2022/11/30 07:18:31;;;;;;;32.77;14.73;;;5.40;99.90;;;;;;4123849;28;20504;-75
2022/11/30 07:20:33;;;;;;;34.53;15.60;;;5.40;99.90;;;;;;4121926;28;20460;-73
2022/11/30 07:22:35;;;;;;;35.87;16.00;;;5.40;99.90;;;;;;4122256;28;20467;-73
2022/11/30 07:26:59;;;;;;;35.43;15.73;;;5.40;99.90;;;;;;4121381;28;20461;-73
2022/11/30 07:29:01;;;;;;;32.90;15.00;;;5.40;99.90;;;;;;4118544;28;20480;-75
2022/11/30 07:31:12;;;;;;;34.43;15.07;;;5.30;99.90;;;;;;4106231;28;20492;-74
2022/11/30 07:33:14;;;;;;;36.43;15.70;;;5.40;99.90;;;;;;4127455;28;21022;-74
2022/11/30 07:35:17;;;;;;;38.33;15.70;;;5.40;99.90;;;;;;4101590;28;20474;-75
2022/11/30 07:37:19;;;;;;;35.70;16.13;;;5.40;99.90;;;;;;4122731;28;20478;-75
2022/11/30 07:39:22;;;;;;;36.37;15.93;;;5.40;99.90;;;;;;4121778;28;20479;-74
2022/11/30 07:41:26;;;;;;;37.27;16.47;;;5.50;99.90;;;;;;4104277;28;20493;-74
2022/11/30 07:43:28;;;;;;;38.27;15.87;;;5.50;99.90;;;;;;4118502;28;20505;-74
2022/11/30 07:45:30;;;;;;;37.47;16.67;;;5.50;99.90;;;;;;4120987;28;20498;-73
2022/11/30 07:47:32;;;;;;;41.13;16.93;;;5.50;99.90;;;;;;4106647;28;20895;-73
2022/11/30 07:49:34;;;;;;;39.73;16.70;;;5.50;99.90;;;;;;4123989;28;20515;-74
2022/11/30 07:51:37;;;;;;;40.33;17.23;;;5.50;99.90;;;;;;4120110;28;20573;-74
2022/11/30 07:53:39;;;;;;;44.13;18.53;;;5.50;99.90;;;;;;4121950;28;20488;-73
2022/11/30 07:55:41;;;;;;;37.50;17.10;;;5.50;99.90;;;;;;4125801;28;21122;-74
2022/11/30 07:57:44;;;;;;;40.83;17.83;;;5.50;99.90;;;;;;4122750;28;20440;-73
2022/11/30 07:59:46;;;;;;;41.93;18.43;;;5.50;99.90;;;;;;4101473;28;20493;-74
2022/11/30 08:01:48;;;;;;;44.83;19.07;;;5.50;99.90;;;;;;4115001;28;20457;-74
2022/11/30 08:03:50;;;;;;;44.87;18.63;;;5.50;99.90;;;;;;4118213;28;20528;-74
2022/11/30 08:05:52;;;;;;;45.37;19.23;;;5.50;99.90;;;;;;4119108;28;20986;-74
2022/11/30 08:07:54;;;;;;;45.13;18.43;;;5.50;99.90;;;;;;4114117;28;20491;-74
2022/11/30 08:09:56;;;;;;;42.27;18.93;;;5.50;99.90;;;;;;4117186;28;20454;-74
2022/11/30 08:11:58;;;;;;;43.43;18.30;;;5.50;99.90;;;;;;4117247;28;20999;-74
2022/11/30 08:14:02;;;;;;;44.53;18.57;;;5.50;99.90;;;;;;4118014;28;20494;-74
2022/11/30 08:16:06;;;;;;;46.83;20.03;;;5.50;99.90;;;;;;4120164;28;20453;-74
2022/11/30 08:18:09;;;;;;;44.83;18.90;;;5.50;99.90;;;;;;4122122;28;20449;-74
2022/11/30 08:20:11;;;;;;;44.13;18.00;;;5.50;99.90;;;;;;4102215;28;20466;-74
2022/11/30 08:22:13;;;;;;;45.53;19.43;;;5.50;99.90;;;;;;4119617;28;20472;-74
2022/11/30 08:24:15;;;;;;;46.17;18.60;;;5.60;99.90;;;;;;4119004;28;21047;-74
2022/11/30 08:26:20;;;;;;;51.30;20.33;;;5.60;99.90;;;;;;4104861;28;20459;-74
2022/11/30 08:28:22;;;;;;;43.57;18.87;;;5.60;99.90;;;;;;4105888;28;20490;-74
2022/11/30 08:30:25;;;;;;;43.47;19.00;;;5.60;99.90;;;;;;4120695;28;20453;-74
2022/11/30 08:32:27;;;;;;;50.17;19.90;;;5.70;99.90;;;;;;4118682;28;20953;-74
2022/11/30 08:34:29;;;;;;;47.67;21.07;;;5.70;99.90;;;;;;4118426;28;20478;-74
2022/11/30 08:36:31;;;;;;;50.20;21.03;;;5.80;99.90;;;;;;4117089;28;20547;-74
2022/11/30 08:38:33;;;;;;;52.37;20.67;;;5.70;99.90;;;;;;4107192;28;20518;-74
2022/11/30 08:40:35;;;;;;;45.67;20.00;;;5.80;99.90;;;;;;4119307;28;20450;-74
2022/11/30 08:42:37;;;;;;;49.67;20.03;;;5.80;99.90;;;;;;4116750;28;20450;-74
2022/11/30 08:44:39;;;;;;;47.93;20.50;;;5.80;99.90;;;;;;4101788;28;20523;-74
2022/11/30 08:46:42;;;;;;;45.83;20.03;;;5.90;99.90;;;;;;4117793;28;20489;-74
2022/11/30 08:48:44;;;;;;;47.10;20.60;;;5.90;99.90;;;;;;4119440;28;20469;-74
2022/11/30 08:50:46;;;;;;;48.60;20.97;;;5.90;99.90;;;;;;4118020;28;20488;-73
2022/11/30 08:52:48;;;;;;;49.40;20.97;;;5.90;99.90;;;;;;4119282;28;20461;-74
2022/11/30 08:54:50;;;;;;;51.00;20.73;;;6.00;99.90;;;;;;4117292;28;20501;-74
2022/11/30 08:56:55;;;;;;;47.50;19.63;;;5.90;99.90;;;;;;4118328;28;20974;-74
2022/11/30 08:58:57;;;;;;;47.83;20.53;;;6.00;99.90;;;;;;4116839;28;20469;-73
2022/11/30 09:01:06;;;;;;;49.70;22.03;;;6.00;99.90;;;;;;4120761;28;20441;-74
2022/11/30 09:03:09;;;;;;;50.47;20.53;;;6.00;99.90;;;;;;4119075;28;20478;-74
2022/11/30 09:05:11;;;;;;;51.03;20.90;;;6.00;99.90;;;;;;4119205;28;20896;-74
2022/11/30 09:07:13;;;;;;;48.80;19.87;;;6.00;99.90;;;;;;4117957;28;20861;-74
2022/11/30 09:09:15;;;;;;;47.33;21.63;;;6.00;99.90;;;;;;4115133;28;20552;-74
2022/11/30 09:11:19;;;;;;;51.80;22.13;;;6.10;99.90;;;;;;4116682;28;20563;-74
2022/11/30 09:13:21;;;;;;;48.57;20.80;;;6.10;99.90;;;;;;4115842;28;20496;-74
2022/11/30 09:15:23;;;;;;;50.50;22.17;;;6.20;99.90;;;;;;4116423;28;20504;-74
2022/11/30 09:17:25;;;;;;;50.30;21.83;;;6.10;99.90;;;;;;4100207;28;20598;-74
2022/11/30 09:19:28;;;;;;;45.67;20.70;;;6.10;99.90;;;;;;4117453;28;20453;-74
2022/11/30 09:21:30;;;;;;;53.13;21.90;;;6.10;99.90;;;;;;4119563;28;20475;-74
2022/11/30 09:23:33;;;;;;;47.87;20.83;;;6.10;99.90;;;;;;4117630;28;20478;-74
2022/11/30 09:25:34;;;;;;;48.50;20.73;;;6.20;99.90;;;;;;4101300;28;20500;-75
2022/11/30 09:27:36;;;;;;;53.57;23.10;;;6.20;99.90;;;;;;4118331;28;20462;-74
2022/11/30 09:29:38;;;;;;;54.00;22.70;;;6.20;99.90;;;;;;4115807;28;20456;-74
2022/11/30 09:31:40;;;;;;;48.20;21.03;;;6.30;99.90;;;;;;4118800;28;21965;-74
2022/11/30 09:33:43;;;;;;;50.23;21.87;;;6.30;99.90;;;;;;4100596;28;21043;-74
2022/11/30 09:35:55;;;;;;;48.47;20.53;;;6.30;99.90;;;;;;4101714;28;20460;-74
2022/11/30 09:37:57;;;;;;;50.67;20.73;;;6.30;99.90;;;;;;4102331;28;20487;-74
2022/11/30 09:39:59;;;;;;;46.57;20.23;;;6.30;99.90;;;;;;4120192;28;20494;-74
2022/11/30 09:42:30;;;;;;;54.73;21.77;;;6.30;99.90;;;;;;4119837;28;20961;-74
2022/11/30 09:44:39;;;;;;;47.43;19.97;;;6.30;99.90;;;;;;4107084;28;20896;-74
2022/11/30 09:46:47;;;;;;;46.37;20.80;;;6.40;99.90;;;;;;4103560;28;20456;-74
2022/11/30 09:48:54;;;;;;;51.57;21.63;;;6.50;99.90;;;;;;4104636;28;20481;-74
2022/11/30 09:51:04;;;;;;;53.03;21.53;;;6.40;99.90;;;;;;4114073;28;20860;-74
2022/11/30 09:53:11;;;;;;;53.43;22.07;;;6.40;99.90;;;;;;4113035;28;20485;-73
2022/11/30 09:55:22;;;;;;;55.50;23.17;;;6.50;99.90;;;;;;4119923;28;20498;-74
2022/11/30 09:57:29;;;;;;;58.50;22.93;;;6.50;99.90;;;;;;4119597;28;20458;-73
2022/11/30 09:59:35;;;;;;;53.67;22.67;;;6.50;99.90;;;;;;4121267;28;20544;-74
2022/11/30 10:01:37;;;;;;;50.27;22.20;;;6.50;99.90;;;;;;4119011;28;20459;-74
2022/11/30 10:03:42;;;;;;;48.63;21.83;;;6.60;99.90;;;;;;4121887;28;20476;-73
2022/11/30 10:05:48;;;;;;;51.17;21.13;;;6.60;99.90;;;;;;4120405;28;20447;-73
2022/11/30 10:08:05;;;;;;;51.87;22.53;;;6.60;99.90;;;;;;4120368;28;20461;-74
2022/11/30 10:10:14;;;;;;;56.50;23.33;;;6.60;99.90;;;;;;4120861;28;20953;-74
2022/11/30 10:12:25;;;;;;;50.40;22.33;;;6.60;99.90;;;;;;4118527;28;20523;-74
2022/11/30 10:14:53;;;;;;;52.50;22.23;;;6.70;99.90;;;;;;4117977;28;20618;-74
2022/11/30 10:17:04;;;;;;;55.63;23.03;;;6.60;99.90;;;;;;4121363;28;20446;-74
2022/11/30 10:19:16;;;;;;;48.57;21.33;;;6.70;99.90;;;;;;4118935;28;20467;-73
2022/11/30 10:21:32;;;;;;;52.20;21.93;;;6.70;99.90;;;;;;4122441;28;20957;-74
2022/11/30 10:24:04;;;;;;;54.80;22.30;;;6.70;99.90;;;;;;4122076;28;20507;-73
2022/11/30 10:26:10;;;;;;;54.27;21.83;;;6.70;99.90;;;;;;4120372;28;20469;-74
2022/11/30 10:28:23;;;;;;;49.53;21.57;;;6.70;99.90;;;;;;4120466;28;20526;-74
2022/11/30 10:30:36;;;;;;;50.60;21.57;;;6.70;99.90;;;;;;4118814;28;20454;-74
2022/11/30 10:32:40;;;;;;;50.03;21.27;;;6.80;99.90;;;;;;4118785;28;21016;-74
2022/11/30 10:34:45;;;;;;;49.13;21.93;;;6.80;99.90;;;;;;4119514;28;20503;-74
2022/11/30 10:36:53;;;;;;;47.37;20.77;;;6.80;99.90;;;;;;4118680;28;20530;-74
2022/11/30 10:39:00;;;;;;;57.57;22.37;;;6.80;99.90;;;;;;4118553;28;20456;-73